Time;durP1;ratioP1;P1;durP2;ratioP2;P2;SDS_P1;SDS_P2;PMS_P1;PMS_P2;Temp;Humidity;BMP_temperature;BMP_pressure;BME280_temperature;BME280_humidity;BME280_pressure;Samples;Min_cycle;Max_cycle;Signal;HPM_P1;HPM_P2
2021/04/29 00:01:19;;;;;;;3.65;1.65;;;;;;;;;;5052139;28;20059;-81
2021/04/29 00:03:45;;;;;;;4.00;1.80;;;;;;;;;;5054240;28;20067;-81
2021/04/29 00:06:11;;;;;;;3.03;1.92;;;;;;;;;;5045254;28;20522;-82
2021/04/29 00:08:38;;;;;;;2.53;1.95;;;13.60;67.30;;;;;;5045689;28;20464;-80
2021/04/29 00:11:05;;;;;;;5.72;2.08;;;13.80;65.60;;;;;;5081297;28;20029;-81
2021/04/29 00:13:31;;;;;;;3.38;2.35;;;;;;;;;;5048115;28;20033;-81
2021/04/29 00:15:57;;;;;;;2.80;1.35;;;;;;;;;;5046954;28;20231;-82
2021/04/29 00:18:23;;;;;;;2.22;1.92;;;;;;;;;;5046540;28;20126;-82
2021/04/29 00:20:55;;;;;;;3.78;1.60;;;;;;;;;;5038950;28;20033;-82
2021/04/29 00:23:21;;;;;;;5.18;2.17;;;;;;;;;;5058852;28;20036;-83
2021/04/29 00:25:47;;;;;;;3.97;1.95;;;;;;;;;;5048244;28;20064;-82
2021/04/29 00:28:13;;;;;;;2.40;1.38;;;;;;;;;;5051295;28;20439;-82
2021/04/29 00:30:39;;;;;;;1.65;1.40;;;;;;;;;;5055614;28;20012;-82
2021/04/29 00:33:05;;;;;;;4.22;2.30;;;;;;;;;;5045876;28;20041;-82
2021/04/29 00:35:31;;;;;;;4.18;2.35;;;;;;;;;;5046951;28;20536;-82
2021/04/29 00:37:57;;;;;;;2.78;2.03;;;;;;;;;;5058266;28;20036;-83
2021/04/29 00:40:23;;;;;;;4.18;2.70;;;;;;;;;;5057461;28;20029;-82
2021/04/29 00:42:49;;;;;;;2.80;1.73;;;;;;;;;;5052574;28;20452;-82
2021/04/29 00:45:15;;;;;;;3.55;2.03;;;;;;;;;;5045575;28;20085;-82
2021/04/29 00:47:41;;;;;;;3.05;2.03;;;;;;;;;;5061313;28;20903;-83
2021/04/29 00:50:09;;;;;;;3.85;2.03;;;13.80;62.80;;;;;;5048803;28;20053;-82
2021/04/29 00:52:35;;;;;;;11.30;2.22;;;;;;;;;;5047519;28;20132;-83
2021/04/29 00:55:01;;;;;;;3.00;2.00;;;;;;;;;;5044508;28;20164;-83
2021/04/29 00:57:27;;;;;;;1.85;1.55;;;;;;;;;;5045897;28;20547;-82
2021/04/29 00:59:55;;;;;;;2.97;1.75;;;13.90;60.70;;;;;;5041778;28;20087;-83
2021/04/29 01:02:23;;;;;;;1.98;1.13;;;14.30;51.70;;;;;;5049035;28;20104;-82
2021/04/29 01:05:07;;;;;;;1.73;1.30;;;14.40;53.30;;;;;;5035258;28;20029;-82
2021/04/29 01:07:36;;;;;;;4.75;1.95;;;;;;;;;;5026523;28;20037;-82
2021/04/29 01:10:08;;;;;;;3.55;1.85;;;14.20;59.10;;;;;;5034589;28;20036;-82
2021/04/29 01:12:49;;;;;;;8.82;2.40;;;14.00;57.50;;;;;;5034910;28;20132;-82
2021/04/29 01:15:16;;;;;;;3.17;1.65;;;13.70;57.10;;;;;;5043611;28;20050;-82
2021/04/29 01:17:44;;;;;;;;;;;13.60;58.20;;;;;;5031680;28;20041;-82
2021/04/29 01:20:22;;;;;;;2.97;1.45;;;13.60;58.60;;;;;;5036203;28;19974;-81
2021/04/29 01:23:03;;;;;;;2.80;1.20;;;13.60;64.80;;;;;;5034204;28;20037;-82
2021/04/29 01:25:29;;;;;;;1.98;1.50;;;;;;;;;;5031962;28;20026;-82
2021/04/29 01:27:56;;;;;;;1.85;1.50;;;13.80;58.20;;;;;;5032909;28;20029;-83
2021/04/29 01:30:23;;;;;;;2.17;1.70;;;;;;;;;;5033025;28;20029;-82
2021/04/29 01:32:49;;;;;;;3.53;1.30;;;;;;;;;;5029530;28;20112;-81
2021/04/29 01:35:15;;;;;;;2.00;1.55;;;;;;;;;;5036453;28;20026;-82
2021/04/29 01:37:41;;;;;;;1.63;1.15;;;;;;;;;;5030157;28;20061;-82
2021/04/29 01:40:08;;;;;;;1.58;1.30;;;;;;;;;;5032101;28;20552;-81
2021/04/29 01:42:35;;;;;;;1.13;0.93;;;13.80;61.70;;;;;;5033884;28;20033;-81
2021/04/29 01:45:03;;;;;;;2.17;1.08;;;13.70;61.50;;;;;;5029930;28;20033;-82
2021/04/29 01:47:32;;;;;;;2.45;1.30;;;13.70;60.70;;;;;;5030965;28;20037;-81
2021/04/29 01:49:58;;;;;;;2.75;1.80;;;;;;;;;;5032959;28;20175;-80
2021/04/29 01:52:24;;;;;;;7.53;1.65;;;;;;;;;;5031389;28;20084;-83
2021/04/29 01:54:50;;;;;;;3.22;1.50;;;;;;;;;;5032094;28;20021;-83
2021/04/29 01:57:18;;;;;;;2.63;1.25;;;13.50;60.30;;;;;;5030819;28;20036;-81
2021/04/29 01:59:44;;;;;;;2.35;1.95;;;;;;;;;;5028622;28;20116;-80
2021/04/29 02:02:10;;;;;;;2.53;1.88;;;;;;;;;;5034525;28;20554;-81
2021/04/29 02:04:36;;;;;;;3.88;1.65;;;;;;;;;;5032843;28;20052;-80
2021/04/29 02:07:02;;;;;;;5.05;1.73;;;;;;;;;;5030843;28;20029;-82
2021/04/29 02:09:28;;;;;;;3.90;1.48;;;;;;;;;;5031412;28;20028;-82
2021/04/29 02:11:57;;;;;;;2.42;1.77;;;;;;;;;;5026454;28;20061;-82
2021/04/29 02:14:29;;;;;;;2.60;1.42;;;;;;;;;;5033818;28;20038;-83
2021/04/29 02:16:58;;;;;;;3.03;1.30;;;13.40;59.20;;;;;;5031316;28;20529;-81
2021/04/29 02:19:25;;;;;;;6.90;1.95;;;;;;;;;;5030114;28;20112;-80
2021/04/29 02:21:51;;;;;;;2.38;1.58;;;13.40;60.60;;;;;;5030768;28;20117;-82
2021/04/29 02:24:18;;;;;;;4.07;1.77;;;13.50;60.60;;;;;;5063927;28;20029;-81
2021/04/29 02:26:44;;;;;;;3.63;1.75;;;;;;;;;;5028261;28;20033;-81
2021/04/29 02:29:10;;;;;;;1.20;1.10;;;;;;;;;;5034099;28;20484;-81
2021/04/29 02:31:37;;;;;;;8.27;2.03;;;13.40;58.50;;;;;;5031948;28;20501;-81
2021/04/29 02:34:04;;;;;;;6.57;1.02;;;13.30;56.60;;;;;;5039171;28;20040;-80
2021/04/29 02:36:31;;;;;;;1.73;1.25;;;13.30;57.80;;;;;;5042444;28;20115;-83
2021/04/29 02:38:58;;;;;;;2.53;1.50;;;13.30;59.70;;;;;;5027697;28;20033;-83
2021/04/29 02:41:25;;;;;;;1.38;0.90;;;13.30;59.70;;;;;;5032652;28;20402;-82
2021/04/29 02:43:51;;;;;;;2.05;1.50;;;;;;;;;;5031982;28;20112;-84
2021/04/29 02:46:18;;;;;;;2.90;1.65;;;13.10;60.60;;;;;;5040564;28;20044;-82
2021/04/29 02:48:44;;;;;;;4.70;1.65;;;;;;;;;;5037854;28;20036;-82
2021/04/29 02:51:10;;;;;;;4.68;2.15;;;;;;;;;;5028630;28;20034;-82
2021/04/29 02:53:36;;;;;;;1.90;1.30;;;;;;;;;;5029450;28;20583;-81
2021/04/29 02:56:03;;;;;;;1.90;1.08;;;13.10;60.40;;;;;;5032750;28;20041;-80
2021/04/29 02:58:29;;;;;;;7.38;1.80;;;;;;;;;;5039867;28;20020;-83
2021/04/29 03:00:59;;;;;;;5.15;2.33;;;13.40;57.60;;;;;;5037116;28;20033;-82
2021/04/29 03:03:25;;;;;;;3.42;2.25;;;;;;;;;;5029958;28;20536;-81
2021/04/29 03:05:51;;;;;;;2.28;1.63;;;;;;;;;;5025968;28;20033;-80
2021/04/29 03:08:17;;;;;;;2.00;1.25;;;;;;;;;;5044444;28;20505;-80
2021/04/29 03:10:43;;;;;;;4.13;1.40;;;;;;;;;;5031874;28;20025;-80
2021/04/29 03:13:09;;;;;;;2.10;1.40;;;;;;;;;;5031121;28;20103;-81
2021/04/29 03:15:35;;;;;;;4.65;2.55;;;;;;;;;;5029110;28;20038;-80
2021/04/29 03:18:01;;;;;;;3.13;1.90;;;;;;;;;;5027217;28;20029;-81
2021/04/29 03:20:27;;;;;;;2.22;1.00;;;;;;;;;;5031938;28;20060;-82
2021/04/29 03:22:53;;;;;;;3.90;1.55;;;;;;;;;;5032985;28;20026;-81
2021/04/29 03:25:19;;;;;;;3.35;1.98;;;;;;;;;;5029586;28;20032;-80
2021/04/29 03:27:45;;;;;;;3.00;1.60;;;;;;;;;;5039696;28;20457;-80
2021/04/29 03:30:11;;;;;;;6.07;1.55;;;;;;;;;;5028476;28;20014;-80
2021/04/29 03:32:38;;;;;;;2.60;2.17;;;12.90;60.70;;;;;;5027553;28;20033;-80
2021/04/29 03:35:04;;;;;;;1.58;1.13;;;;;;;;;;5034077;28;20112;-82
2021/04/29 03:37:30;;;;;;;4.25;1.85;;;;;;;;;;5031440;28;20482;-80
2021/04/29 03:39:56;;;;;;;2.40;1.63;;;;;;;;;;5031178;28;20029;-81
2021/04/29 03:42:23;;;;;;;3.30;2.08;;;;;;;;;;5027731;28;20417;-81
2021/04/29 03:44:49;;;;;;;3.60;1.98;;;;;;;;;;5025795;28;20036;-81
2021/04/29 03:47:15;;;;;;;2.05;1.35;;;;;;;;;;5034033;28;20088;-82
2021/04/29 03:49:41;;;;;;;3.50;1.48;;;;;;;;;;5029943;28;20511;-81
2021/04/29 03:52:07;;;;;;;4.13;1.55;;;;;;;;;;5029497;28;20051;-81
2021/04/29 03:54:33;;;;;;;3.67;2.00;;;;;;;;;;5031086;28;20037;-80
2021/04/29 03:56:58;;;;;;;2.47;1.40;;;;;;;;;;5026652;28;20037;-80
2021/04/29 03:59:25;;;;;;;3.17;1.13;;;;;;;;;;5031797;28;20037;-80
2021/04/29 04:01:51;;;;;;;5.07;4.07;;;;;;;;;;5031545;28;20029;-81
2021/04/29 04:04:17;;;;;;;2.65;1.70;;;;;;;;;;5029461;28;20033;-81
2021/04/29 04:06:43;;;;;;;2.35;1.80;;;;;;;;;;5029655;28;20021;-80
2021/04/29 04:09:09;;;;;;;1.15;1.05;;;;;;;;;;5029518;28;20072;-83
2021/04/29 04:11:35;;;;;;;2.40;1.63;;;;;;;;;;5029405;28;20057;-83
2021/04/29 04:14:02;;;;;;;1.40;1.17;;;;;;;;;;5030998;28;20072;-82
2021/04/29 04:16:29;;;;;;;4.55;2.00;;;;;;;;;;5029381;28;20083;-80
2021/04/29 04:18:55;;;;;;;2.08;1.45;;;;;;;;;;5030738;28;20060;-80
2021/04/29 04:21:21;;;;;;;3.72;2.10;;;;;;;;;;5023742;28;20058;-80
2021/04/29 04:23:47;;;;;;;2.67;1.73;;;;;;;;;;5042362;28;20041;-84
2021/04/29 04:26:13;;;;;;;4.32;1.75;;;;;;;;;;5033604;28;20501;-81
2021/04/29 04:28:39;;;;;;;3.75;2.00;;;;;;;;;;5030777;28;20052;-81
2021/04/29 04:31:05;;;;;;;3.75;2.45;;;;;;;;;;5028891;28;20046;-81
2021/04/29 04:33:31;;;;;;;7.25;2.25;;;;;;;;;;5031117;28;20033;-80
2021/04/29 04:35:57;;;;;;;4.35;1.38;;;;;;;;;;5025670;28;20831;-81
2021/04/29 04:38:23;;;;;;;3.75;1.88;;;;;;;;;;5032191;28;20502;-80
2021/04/29 04:40:49;;;;;;;3.53;1.70;;;;;;;;;;5035248;28;20033;-81
2021/04/29 04:43:15;;;;;;;4.15;1.90;;;;;;;;;;5034273;28;20034;-79
2021/04/29 04:45:43;;;;;;;4.25;2.10;;;;;;;;;;5032704;28;20102;-83
2021/04/29 04:48:09;;;;;;;;;;;12.80;61.60;;;;;;5030385;28;20033;-81
2021/04/29 04:50:35;;;;;;;4.77;2.33;;;;;;;;;;5033076;28;20385;-82
2021/04/29 04:53:01;;;;;;;1.70;1.45;;;;;;;;;;5034187;28;20045;-83
2021/04/29 04:55:27;;;;;;;4.47;1.83;;;;;;;;;;5035209;28;20052;-83
2021/04/29 04:57:53;;;;;;;3.90;1.90;;;;;;;;;;5031934;28;20122;-82
2021/04/29 05:00:19;;;;;;;1.88;1.30;;;12.60;67.20;;;;;;5029833;28;20049;-82
2021/04/29 05:02:45;;;;;;;5.32;1.30;;;;;;;;;;5046334;28;20033;-83
2021/04/29 05:05:12;;;;;;;4.68;2.40;;;;;;;;;;5036778;28;20032;-82
2021/04/29 05:07:38;;;;;;;2.67;1.63;;;;;;;;;;5034609;28;20037;-82
2021/04/29 05:10:04;;;;;;;2.15;1.92;;;12.70;61.50;;;;;;5034225;28;20029;-82
2021/04/29 05:12:30;;;;;;;2.25;1.73;;;;;;;;;;5032130;28;20071;-81
2021/04/29 05:14:56;;;;;;;3.70;1.98;;;;;;;;;;5027772;28;20433;-81
2021/04/29 05:17:22;;;;;;;2.63;2.00;;;;;;;;;;5033574;28;20045;-82
2021/04/29 05:19:48;;;;;;;4.97;2.25;;;;;;;;;;5032359;28;20025;-82
2021/04/29 05:22:15;;;;;;;4.07;1.83;;;;;;;;;;5034376;28;20512;-82
2021/04/29 05:24:42;;;;;;;1.70;1.60;;;12.70;60.00;;;;;;5033017;28;20425;-83
2021/04/29 05:27:08;;;;;;;2.63;1.48;;;;;;;;;;5031017;28;20026;-82
2021/04/29 05:29:34;;;;;;;2.25;1.42;;;;;;;;;;5031232;28;20072;-82
2021/04/29 05:32:00;;;;;;;5.53;2.55;;;;;;;;;;5032698;28;20029;-82
2021/04/29 05:34:26;;;;;;;3.80;2.38;;;;;;;;;;5031844;28;20453;-81
2021/04/29 05:36:52;;;;;;;11.18;1.95;;;;;;;;;;5029574;28;20083;-82
2021/04/29 05:39:18;;;;;;;2.65;1.77;;;;;;;;;;5028951;28;20033;-81
2021/04/29 05:41:44;;;;;;;4.20;1.75;;;;;;;;;;5027921;28;20026;-81
2021/04/29 05:44:10;;;;;;;1.65;1.20;;;;;;;;;;5034153;28;20022;-81
2021/04/29 05:46:37;;;;;;;3.72;2.28;;;;;;;;;;5030735;28;20029;-82
2021/04/29 05:49:03;;;;;;;5.18;2.53;;;;;;;;;;5031130;28;20041;-89
2021/04/29 05:51:29;;;;;;;4.00;2.28;;;;;;;;;;5032877;28;20087;-82
2021/04/29 05:53:55;;;;;;;3.42;2.25;;;13.20;60.40;;;;;;5042047;28;20161;-82
2021/04/29 05:56:21;;;;;;;12.40;2.63;;;;;;;;;;5034937;28;20032;-84
2021/04/29 05:58:47;;;;;;;3.65;2.53;;;;;;;;;;5030415;28;20029;-83
2021/04/29 06:01:13;;;;;;;4.47;2.15;;;;;;;;;;5029742;28;20022;-82
2021/04/29 06:03:39;;;;;;;3.80;2.00;;;;;;;;;;5030585;28;20234;-83
2021/04/29 06:06:06;;;;;;;2.13;1.80;;;12.90;60.00;;;;;;5028123;28;20022;-83
2021/04/29 06:08:32;;;;;;;2.72;1.98;;;;;;;;;;5031338;28;20576;-83
2021/04/29 06:10:58;;;;;;;2.85;2.28;;;;;;;;;;5032387;28;20057;-82
2021/04/29 06:13:24;;;;;;;4.32;2.30;;;;;;;;;;5031366;28;20068;-82
2021/04/29 06:15:50;;;;;;;4.13;2.58;;;;;;;;;;5029684;28;20454;-82
2021/04/29 06:18:16;;;;;;;3.15;2.08;;;;;;;;;;5027860;28;20052;-81
2021/04/29 06:20:42;;;;;;;5.18;2.03;;;;;;;;;;5027901;28;20021;-82
2021/04/29 06:23:08;;;;;;;3.28;2.33;;;;;;;;;;5032982;28;20056;-88
2021/04/29 06:25:34;;;;;;;3.85;2.72;;;;;;;;;;5030175;28;20069;-87
2021/04/29 06:28:01;;;;;;;9.43;6.05;;;;;;;;;;5019354;28;20061;-89
2021/04/29 06:30:27;;;;;;;4.80;3.25;;;;;;;;;;5026797;28;20025;-87
2021/04/29 06:32:53;;;;;;;4.88;2.63;;;;;;;;;;5027958;28;20040;-91
2021/04/29 06:35:31;;;;;;;8.13;2.53;;;;;;;;;;5046752;28;20013;-96
2021/04/29 06:37:57;;;;;;;4.00;2.15;;;;;;;;;;5023283;28;20041;-82
2021/04/29 06:40:25;;;;;;;3.00;2.25;;;;;;;;;;5020978;28;20543;-82
2021/04/29 06:42:50;;;;;;;4.65;2.60;;;;;;;;;;5022716;28;20029;-82
2021/04/29 06:45:16;;;;;;;9.43;3.10;;;;;;;;;;5019064;28;20057;-82
2021/04/29 06:47:42;;;;;;;7.43;2.80;;;;;;;;;;5020889;28;20822;-82
2021/04/29 06:50:09;;;;;;;4.80;2.40;;;;;;;;;;5026078;28;20033;-82
2021/04/29 06:52:35;;;;;;;2.28;2.05;;;;;;;;;;5019984;28;20437;-85
2021/04/29 06:55:01;;;;;;;3.42;2.13;;;;;;;;;;5021516;28;20037;-82
2021/04/29 06:57:27;;;;;;;4.22;2.35;;;;;;;;;;5022655;28;20391;-85
2021/04/29 06:59:53;;;;;;;6.38;3.50;;;;;;;;;;5037435;28;20028;-82
2021/04/29 07:02:19;;;;;;;4.75;2.47;;;;;;;;;;5023572;28;20896;-82
2021/04/29 07:04:45;;;;;;;4.82;2.75;;;;;;;;;;5022970;28;20022;-86
2021/04/29 07:07:11;;;;;;;2.83;1.92;;;;;;;;;;5020051;28;20402;-83
2021/04/29 07:09:37;;;;;;;4.18;3.00;;;;;;;;;;5022972;28;20026;-85
2021/04/29 07:12:03;;;;;;;5.07;3.22;;;;;;;;;;5024468;28;20017;-91
2021/04/29 07:14:29;;;;;;;8.40;2.78;;;;;;;;;;5028838;28;20071;-90
2021/04/29 07:16:55;;;;;;;3.85;2.38;;;;;;;;;;5025799;28;20061;-88
2021/04/29 07:19:21;;;;;;;7.03;2.75;;;;;;;;;;5028228;28;20025;-90
2021/04/29 07:21:47;;;;;;;9.82;2.47;;;;;;;;;;5025931;28;20139;-88
2021/04/29 07:24:13;;;;;;;4.38;2.00;;;;;;;;;;5026104;28;20537;-93
2021/04/29 07:26:39;;;;;;;2.42;1.10;;;;;;;;;;5027230;28;20025;-92
2021/04/29 07:29:05;;;;;;;3.22;1.52;;;;;;;;;;5026878;28;20533;-89
2021/04/29 07:31:31;;;;;;;2.60;1.20;;;;;;;;;;5026265;28;20134;-91
2021/04/29 07:33:58;;;;;;;1.90;1.27;;;;;;;;;;5021396;28;20041;-83
2021/04/29 07:36:24;;;;;;;3.38;2.15;;;;;;;;;;5018234;28;20272;-82
2021/04/29 07:38:53;;;;;;;4.30;1.92;;;;;;;;;;5025508;28;20032;-93
2021/04/29 07:41:23;;;;;;;4.07;1.75;;;;;;;;;;5028141;28;20147;-81
2021/04/29 07:43:49;;;;;;;3.10;1.98;;;;;;;;;;5019654;28;20032;-81
2021/04/29 07:46:15;;;;;;;2.20;1.52;;;;;;;;;;5019459;28;20049;-81
2021/04/29 07:48:41;;;;;;;3.05;1.65;;;;;;;;;;5018422;28;20029;-84
2021/04/29 07:51:07;;;;;;;4.70;1.50;;;;;;;;;;5024371;28;20526;-83
2021/04/29 07:53:33;;;;;;;10.55;1.92;;;;;;;;;;5021817;28;20049;-80
2021/04/29 07:55:59;;;;;;;3.03;1.73;;;;;;;;;;5019940;28;20034;-82
2021/04/29 07:58:26;;;;;;;3.33;1.57;;;;;;;;;;5020912;28;20775;-80
2021/04/29 08:00:52;;;;;;;4.20;3.00;;;27.30;26.50;;;;;;5023440;28;20029;-82
2021/04/29 08:03:19;;;;;;;2.65;1.35;;;;;;;;;;5023153;28;20030;-82
2021/04/29 08:05:45;;;;;;;3.70;1.95;;;;;;;;;;5020044;28;20033;-90
2021/04/29 08:08:12;;;;;;;5.55;1.63;;;;;;;;;;5026629;28;20454;-83
2021/04/29 08:10:41;;;;;;;8.48;1.60;;;;;;;;;;5021628;28;20500;-82
2021/04/29 08:13:07;;;;;;;4.30;2.00;;;;;;;;;;5023843;28;20557;-80
2021/04/29 08:15:33;;;;;;;4.70;1.90;;;;;;;;;;5024020;28;20025;-82
2021/04/29 08:17:59;;;;;;;5.90;2.45;;;;;;;;;;5025374;28;20034;-82
2021/04/29 08:20:25;;;;;;;2.40;1.90;;;;;;;;;;5028149;28;20045;-81
2021/04/29 08:22:51;;;;;;;5.75;1.90;;;;;;;;;;5023511;28;20126;-80
2021/04/29 08:25:17;;;;;;;5.57;1.95;;;;;;;;;;5022884;28;20030;-82
2021/04/29 08:27:43;;;;;;;3.85;2.25;;;;;;;;;;5025118;28;20040;-80
2021/04/29 08:30:09;;;;;;;3.67;2.42;;;;;;;;;;5026689;28;20018;-84
2021/04/29 08:32:35;;;;;;;16.70;3.37;;;;;;;;;;5028475;28;20110;-82
2021/04/29 08:35:01;;;;;;;3.20;1.40;;;;;;;;;;5025081;28;20034;-81
2021/04/29 08:37:27;;;;;;;4.38;2.13;;;;;;;;;;5023862;28;20025;-83
2021/04/29 08:39:53;;;;;;;6.15;2.10;;;;;;;;;;5025624;28;20075;-92
2021/04/29 08:42:19;;;;;;;5.70;1.70;;;;;;;;;;5032575;28;20026;-92
2021/04/29 08:44:45;;;;;;;5.57;2.33;;;;;;;;;;5028498;28;20073;-82
2021/04/29 08:47:11;;;;;;;1.88;1.52;;;;;;;;;;5028728;28;20045;-92
2021/04/29 08:49:40;;;;;;;2.85;1.67;;;;;;;;;;5028182;28;20026;-92
2021/04/29 08:52:07;;;;;;;7.45;1.90;;;;;;;;;;5030317;28;20057;-93
2021/04/29 08:54:36;;;;;;;7.65;2.72;;;;;;;;;;5029374;28;20041;-86
2021/04/29 08:57:02;;;;;;;4.10;1.88;;;;;;;;;;5023531;28;20029;-79
2021/04/29 08:59:29;;;;;;;2.28;1.70;;;;;;;;;;5023949;28;20036;-80
2021/04/29 09:01:55;;;;;;;3.30;2.05;;;;;;;;;;5026512;28;20025;-81
2021/04/29 09:04:21;;;;;;;4.80;2.30;;;;;;;;;;5024197;28;20050;-81
2021/04/29 09:06:49;;;;;;;5.95;2.00;;;;;;;;;;5020157;28;23215;-80
2021/04/29 09:09:16;;;;;;;6.18;1.85;;;21.00;36.70;;;;;;5024337;28;20135;-80
2021/04/29 09:11:55;;;;;;;4.65;2.25;;;;;;;;;;5032093;28;20060;-93
2021/04/29 09:14:35;;;;;;;5.97;2.47;;;21.10;36.70;;;;;;5033987;28;20124;-78
2021/04/29 09:17:01;;;;;;;6.30;1.92;;;;;;;;;;5030340;28;20167;-91
2021/04/29 09:19:28;;;;;;;8.20;2.13;;;21.30;37.40;;;;;;5026017;28;20122;-84
2021/04/29 09:21:56;;;;;;;3.65;2.10;;;21.80;36.30;;;;;;5032063;28;20029;-80
2021/04/29 09:24:39;;;;;;;4.00;2.17;;;22.60;36.20;;;;;;5024228;28;20112;-81
2021/04/29 09:27:16;;;;;;;5.07;1.95;;;23.30;35.30;;;;;;5022927;28;20131;-82
2021/04/29 09:29:54;;;;;;;5.63;2.38;;;;;;;;;;5025447;28;20025;-83
2021/04/29 09:32:23;;;;;;;3.10;1.75;;;;;;;;;;5029153;28;20033;-84
2021/04/29 09:34:50;;;;;;;3.78;1.80;;;;;;;;;;5023058;28;20044;-83
2021/04/29 09:37:26;;;;;;;3.63;1.75;;;23.90;31.50;;;;;;5020834;28;20426;-81
2021/04/29 09:39:52;;;;;;;4.35;1.95;;;;;;;;;;5024680;28;20522;-83
2021/04/29 09:42:37;;;;;;;5.97;1.98;;;;;;;;;;5004341;28;20518;-85
2021/04/29 09:45:15;;;;;;;5.72;2.40;;;23.10;33.10;;;;;;4989113;28;20092;-87
2021/04/29 09:47:41;;;;;;;5.43;2.40;;;;;;;;;;4989699;28;20086;-81
2021/04/29 09:50:07;;;;;;;4.85;2.25;;;;;;;;;;4987727;28;20068;-84
2021/04/29 09:52:33;;;;;;;5.10;2.10;;;;;;;;;;5000404;28;20457;-81
2021/04/29 09:55:04;;;;;;;2.60;2.15;;;;;;;;;;4985213;28;20040;-84
2021/04/29 09:57:30;;;;;;;3.45;2.03;;;;;;;;;;4983394;28;20033;-83
2021/04/29 09:59:58;;;;;;;5.95;2.55;;;;;;;;;;5001826;28;20161;-84
2021/04/29 10:02:24;;;;;;;9.15;1.98;;;;;;;;;;4989428;28;20036;-84
2021/04/29 10:04:51;;;;;;;6.45;2.15;;;;;;;;;;4988466;28;20076;-85
2021/04/29 10:07:18;;;;;;;3.30;1.87;;;;;;;;;;4982845;28;20050;-84
2021/04/29 10:09:44;;;;;;;5.43;2.38;;;;;;;;;;4999240;28;20033;-83
2021/04/29 10:12:14;;;;;;;3.28;2.05;;;20.10;39.00;;;;;;4984188;28;20116;-83
2021/04/29 10:14:41;;;;;;;4.22;2.03;;;;;;;;;;4985807;28;20031;-82
2021/04/29 10:17:08;;;;;;;4.57;1.58;;;;;;;;;;4984859;28;20080;-82
2021/04/29 10:19:43;;;;;;;2.60;1.77;;;20.10;40.50;;;;;;4983106;28;20180;-82
2021/04/29 10:22:10;;;;;;;4.60;2.13;;;;;;;;;;4997033;28;20487;-85
2021/04/29 10:24:36;;;;;;;2.20;1.77;;;;;;;;;;5001098;28;20092;-83
2021/04/29 10:27:04;;;;;;;3.25;1.42;;;20.20;37.60;;;;;;4981877;28;20038;-84
2021/04/29 10:29:31;;;;;;;4.40;1.42;;;;;;;;;;4983954;28;20026;-83
2021/04/29 10:31:57;;;;;;;2.78;1.58;;;;;;;;;;5001884;28;20034;-84
2021/04/29 10:34:24;;;;;;;4.63;1.65;;;19.60;59.20;;;;;;4983024;28;20525;-84
2021/04/29 10:36:51;;;;;;;5.33;1.80;;;;;;;;;;4980681;28;20457;-84
2021/04/29 10:39:23;;;;;;;4.25;1.80;;;19.20;40.90;;;;;;4985041;28;20033;-83
2021/04/29 10:42:01;;;;;;;3.85;2.15;;;18.90;39.80;;;;;;4997022;28;20047;-84
2021/04/29 10:44:27;;;;;;;2.22;1.23;;;;;;;;;;4986163;28;20034;-83
2021/04/29 10:47:02;;;;;;;3.55;1.80;;;18.80;40.10;;;;;;4983650;28;20029;-82
2021/04/29 10:49:32;;;;;;;4.75;1.65;;;18.80;40.60;;;;;;4984803;28;20085;-83
2021/04/29 10:52:01;;;;;;;1.58;1.05;;;18.80;41.00;;;;;;4986053;28;20058;-82
2021/04/29 10:54:28;;;;;;;2.22;1.20;;;;;;;;;;4984562;28;20707;-88
2021/04/29 10:57:11;;;;;;;3.08;1.60;;;;;;;;;;4987393;28;20026;-88
2021/04/29 10:59:40;;;;;;;2.72;1.80;;;;;;;;;;4987766;28;20027;-85
2021/04/29 11:02:07;;;;;;;4.50;1.70;;;;;;;;;;4987388;28;20036;-89
2021/04/29 11:04:40;;;;;;;2.65;1.90;;;;;;;;;;4993297;28;20035;-90
2021/04/29 11:07:09;;;;;;;4.38;1.75;;;;;;;;;;4986890;28;20030;-83
2021/04/29 11:09:35;;;;;;;2.58;1.60;;;;;;;;;;4987052;28;20045;-95
2021/04/29 11:12:03;;;;;;;7.00;1.77;;;;;;;;;;4994657;28;20034;-92
2021/04/29 11:14:42;;;;;;;3.80;1.77;;;;;;;;;;4991990;28;20048;-92
2021/04/29 11:17:18;;;;;;;1.67;1.50;;;;;;;;;;4988463;28;20038;-92
2021/04/29 11:19:53;;;;;;;3.42;1.98;;;;;;;;;;4997853;28;20554;-92
2021/04/29 11:22:26;;;;;;;1.70;1.58;;;;;;;;;;4999014;28;20027;-91
2021/04/29 11:24:53;;;;;;;3.25;2.15;;;;;;;;;;4993479;28;20165;-89
2021/04/29 11:27:20;;;;;;;6.70;1.63;;;;;;;;;;4985764;28;20112;-81
2021/04/29 11:29:46;;;;;;;2.22;1.90;;;;;;;;;;4988454;28;20045;-90
2021/04/29 11:32:12;;;;;;;11.88;1.88;;;;;;;;;;4994545;28;20034;-82
2021/04/29 11:34:42;;;;;;;3.75;2.00;;;;;;;;;;4990371;28;20400;-90
2021/04/29 11:37:08;;;;;;;2.08;1.85;;;;;;;;;;4994174;28;20032;-83
2021/04/29 11:39:34;;;;;;;4.38;1.92;;;;;;;;;;4984075;28;20495;-83
2021/04/29 11:42:00;;;;;;;3.88;1.73;;;;;;;;;;4986209;28;20057;-93
2021/04/29 11:44:27;;;;;;;3.72;2.63;;;;;;;;;;5006609;28;20030;-83
2021/04/29 11:46:53;;;;;;;5.70;2.67;;;;;;;;;;4988005;28;20034;-82
2021/04/29 11:49:19;;;;;;;15.98;2.33;;;;;;;;;;4990199;28;20030;-82
2021/04/29 11:51:50;;;;;;;2.97;1.75;;;19.60;39.50;;;;;;4984209;28;20029;-81
2021/04/29 11:54:18;;;;;;;4.40;2.70;;;;;;;;;;4987171;28;20407;-81
2021/04/29 11:56:46;;;;;;;3.38;2.10;;;19.80;37.80;;;;;;4983124;28;20480;-82
2021/04/29 11:59:14;;;;;;;7.82;1.83;;;19.50;38.30;;;;;;4989281;28;20027;-93
2021/04/29 12:01:40;;;;;;;5.15;2.67;;;;;;;;;;4985076;28;20080;-81
2021/04/29 12:04:16;;;;;;;5.13;2.40;;;19.90;38.30;;;;;;4988913;28;20019;-83
2021/04/29 12:06:56;;;;;;;4.55;2.60;;;19.70;37.90;;;;;;4983954;28;20415;-82
2021/04/29 12:09:24;;;;;;;9.35;2.47;;;19.70;39.80;;;;;;4984078;28;20045;-82
2021/04/29 12:11:50;;;;;;;2.15;1.85;;;;;;;;;;4986948;28;20045;-84
2021/04/29 12:14:23;;;;;;;3.88;1.67;;;;;;;;;;4991300;28;20050;-82
2021/04/29 12:16:51;;;;;;;6.75;2.05;;;;;;;;;;4986017;28;20565;-90
2021/04/29 12:19:24;;;;;;;5.50;1.73;;;;;;;;;;4987536;28;20085;-80
2021/04/29 12:21:50;;;;;;;6.70;1.48;;;;;;;;;;4996065;28;20735;-80
2021/04/29 12:24:16;;;;;;;2.88;1.25;;;;;;;;;;4994616;28;20049;-94
2021/04/29 12:26:42;;;;;;;3.35;1.88;;;;;;;;;;4982256;28;20124;-82
2021/04/29 12:29:08;;;;;;;5.47;2.22;;;;;;;;;;4989675;28;20030;-80
2021/04/29 12:31:37;;;;;;;9.13;1.42;;;19.10;40.30;;;;;;4992702;28;20056;-80
2021/04/29 12:34:07;;;;;;;1.20;0.90;;;;;;;;;;4978235;28;20065;-83
2021/04/29 12:36:34;;;;;;;3.90;1.17;;;;;;;;;;4986092;28;20084;-94
2021/04/29 12:39:00;;;;;;;4.85;1.27;;;;;;;;;;4982008;28;20035;-82
2021/04/29 12:41:27;;;;;;;2.33;1.73;;;18.70;39.80;;;;;;4993822;28;20031;-86
2021/04/29 12:44:02;;;;;;;2.67;1.25;;;18.30;40.10;;;;;;4991167;28;20035;-82
2021/04/29 12:46:33;;;;;;;3.25;1.48;;;18.00;40.90;;;;;;4979509;28;20038;-85
2021/04/29 12:48:59;;;;;;;1.90;1.30;;;;;;;;;;4984030;28;20031;-82
2021/04/29 12:51:26;;;;;;;1.58;0.93;;;;;;;;;;4988305;28;20105;-83
2021/04/29 12:54:05;;;;;;;3.53;1.88;;;17.80;41.60;;;;;;4996573;28;20051;-82
2021/04/29 12:56:33;;;;;;;1.90;0.90;;;17.90;41.00;;;;;;4979274;28;20611;-83
2021/04/29 12:59:28;;;;;;;1.80;1.10;;;17.70;41.60;;;;;;4980516;28;20041;-82
2021/04/29 13:02:08;;;;;;;4.65;1.10;;;17.70;40.80;;;;;;4990146;28;20054;-82
2021/04/29 13:04:34;;;;;;;2.20;1.38;;;;;;;;;;4986164;28;20041;-83
2021/04/29 13:07:04;;;;;;;2.10;1.20;;;17.70;41.40;;;;;;4982793;28;20042;-81
2021/04/29 13:09:49;;;;;;;2.28;1.08;;;17.70;40.70;;;;;;4985865;28;20142;-82
2021/04/29 13:12:15;;;;;;;4.68;1.30;;;;;;;;;;4982134;28;20522;-84
2021/04/29 13:14:43;;;;;;;3.55;1.50;;;;;;;;;;4983360;28;20030;-85
2021/04/29 13:17:09;;;;;;;;;;;;;;;;;;4986415;28;20054;-83
2021/04/29 13:19:35;;;;;;;1.95;0.98;;;;;;;;;;4983297;28;20409;-83
2021/04/29 13:22:01;;;;;;;2.50;1.17;;;;;;;;;;5000484;28;20030;-83
2021/04/29 13:24:27;;;;;;;4.00;2.78;;;;;;;;;;4986614;28;20033;-83
2021/04/29 13:26:54;;;;;;;4.83;1.33;;;;;;;;;;4985272;28;20051;-87
2021/04/29 13:29:21;;;;;;;1.50;1.10;;;;;;;;;;5007043;28;20034;-86
2021/04/29 13:31:47;;;;;;;5.88;1.40;;;;;;;;;;4989013;28;20034;-86
2021/04/29 13:34:13;;;;;;;4.50;1.30;;;;;;;;;;4988382;28;20211;-82
2021/04/29 13:36:40;;;;;;;1.77;1.10;;;;;;;;;;4985845;28;20026;-84
2021/04/29 13:39:07;;;;;;;2.40;1.73;;;;;;;;;;4986977;28;20514;-83
2021/04/29 13:41:33;;;;;;;5.35;2.00;;;;;;;;;;4987263;28;20038;-83
2021/04/29 13:43:59;;;;;;;7.43;1.75;;;;;;;;;;5001762;28;20022;-83
2021/04/29 13:46:25;;;;;;;1.23;1.00;;;;;;;;;;4985376;28;20056;-82
2021/04/29 13:48:51;;;;;;;3.63;2.47;;;;;;;;;;4982749;28;20488;-83
2021/04/29 13:51:17;;;;;;;2.92;1.35;;;;;;;;;;4984384;28;20126;-82
2021/04/29 13:53:44;;;;;;;2.55;1.65;;;;;;;;;;4986715;28;20112;-83
2021/04/29 13:56:11;;;;;;;5.10;1.35;;;;;;;;;;4985684;28;20510;-83
2021/04/29 13:58:37;;;;;;;2.88;1.10;;;;;;;;;;4981953;28;20495;-82
2021/04/29 14:01:06;;;;;;;2.30;0.93;;;;;;;;;;4986911;28;20804;-81
2021/04/29 14:03:32;;;;;;;1.42;0.90;;;;;;;;;;4983263;28;20033;-83
2021/04/29 14:05:58;;;;;;;1.75;0.95;;;;;;;;;;5001512;28;20450;-82
2021/04/29 14:08:24;;;;;;;1.77;1.33;;;;;;;;;;4984728;28;20041;-83
2021/04/29 14:10:50;;;;;;;1.17;1.08;;;;;;;;;;4992875;28;20033;-88
2021/04/29 14:13:16;;;;;;;1.75;1.40;;;;;;;;;;4989320;28;20038;-86
2021/04/29 14:15:42;;;;;;;2.75;1.30;;;;;;;;;;4986344;28;20125;-80
2021/04/29 14:18:08;;;;;;;2.08;1.40;;;;;;;;;;4982913;28;20030;-80
2021/04/29 14:20:34;;;;;;;1.90;1.52;;;;;;;;;;4988415;28;20037;-84